Time;durP1;ratioP1;P1;durP2;ratioP2;P2;SDS_P1;SDS_P2;PMS_P1;PMS_P2;Temp;Humidity;BMP_temperature;BMP_pressure;BME280_temperature;BME280_humidity;BME280_pressure;Samples;Min_cycle;Max_cycle;Signal;HPM_P1;HPM_P2
2022/04/26 03:37:40;;;;;;;3.73;0.90;;;;;;;;;;4861651;29;20435;-84
2022/04/26 03:40:08;;;;;;;2.53;1.30;;;;;;;;;;4860464;29;20531;-84
2022/04/26 03:42:35;;;;;;;8.17;1.70;;;;;;;;;;4860199;29;20483;-84
2022/04/26 03:45:02;;;;;;;3.97;1.07;;;;;;;;;;4859986;29;20886;-84
2022/04/26 03:47:30;;;;;;;5.53;1.33;;;;;;;;;;4860178;29;20475;-84
2022/04/26 03:49:57;;;;;;;3.23;1.27;;;;;;;;;;4860825;29;20550;-84
2022/04/26 03:52:24;;;;;;;4.07;1.17;;;;;;;;;;4860216;29;20523;-84
2022/04/26 03:54:51;;;;;;;3.00;1.07;;;;;;;;;;4844719;29;20443;-84
2022/04/26 03:57:18;;;;;;;6.50;0.80;;;;;;;;;;4860308;29;20817;-84
2022/04/26 03:59:45;;;;;;;3.00;1.30;;;;;;;;;;4844521;29;20452;-84
2022/04/26 04:02:13;;;;;;;3.63;1.43;;;;;;;;;;4859301;29;20930;-84
2022/04/26 04:04:41;;;;;;;4.07;1.20;;;;;;;;;;4861055;29;20459;-84
2022/04/26 04:07:08;;;;;;;5.47;1.77;;;;;;;;;;4860074;29;20906;-84
2022/04/26 04:09:36;;;;;;;4.77;1.07;;;;;;;;;;4859722;29;20458;-84
2022/04/26 04:12:04;;;;;;;3.63;1.20;;;;;;;;;;4844556;29;20458;-84
2022/04/26 04:14:31;;;;;;;3.40;1.60;;;;;;;;;;4860510;29;20551;-84
2022/04/26 04:16:59;;;;;;;2.80;1.20;;;;;;;;;;4844724;29;20511;-84
2022/04/26 04:19:29;;;;;;;3.73;1.57;;;;;;;;;;4859745;29;20811;-84
2022/04/26 04:21:56;;;;;;;6.00;1.80;;;;;;;;;;4859968;29;20479;-84
2022/04/26 04:24:24;;;;;;;11.30;1.53;;;;;;;;;;4859778;29;20861;-84
2022/04/26 04:26:51;;;;;;;3.30;1.00;;;;;;;;;;4860835;29;20439;-84
2022/04/26 04:29:18;;;;;;;2.27;0.90;;;;;;;;;;4859828;29;20444;-84
2022/04/26 04:31:46;;;;;;;2.90;0.80;;;;;;;;;;4859577;29;20480;-84
2022/04/26 04:34:13;;;;;;;3.07;1.17;;;;;;;;;;4859589;29;20534;-84
2022/04/26 04:36:40;;;;;;;4.33;1.40;;;;;;;;;;4859744;29;20530;-84
2022/04/26 04:39:08;;;;;;;6.30;1.10;;;;;;;;;;4860974;29;20519;-84
2022/04/26 04:41:38;;;;;;;6.10;1.23;;;;;;;;;;4844069;29;20511;-84
2022/04/26 04:44:05;;;;;;;2.30;0.83;;;;;;;;;;4844385;29;20543;-84
2022/04/26 04:46:33;;;;;;;3.53;1.37;;;;;;;;;;4859296;29;20523;-84
2022/04/26 04:49:00;;;;;;;3.90;0.97;;;;;;;;;;4859685;29;20439;-84
2022/04/26 04:51:27;;;;;;;2.07;1.07;;;;;;;;;;4860875;29;20456;-84
2022/04/26 04:53:54;;;;;;;2.13;1.30;;;;;;;;;;4859268;29;20803;-84
2022/04/26 04:56:24;;;;;;;7.43;1.33;;;;;;;;;;4859574;29;20978;-84
2022/04/26 04:58:52;;;;;;;3.93;1.20;;;;;;;;;;4859547;29;20451;-84
2022/04/26 05:01:20;;;;;;;7.87;1.60;;;;;;;;;;4859462;29;20478;-84
2022/04/26 05:03:47;;;;;;;4.93;2.00;;;;;;;;;;4859403;29;20479;-83
2022/04/26 05:06:15;;;;;;;3.37;0.80;;;;;;;;;;4859640;29;20432;-84
2022/04/26 05:08:43;;;;;;;4.73;1.07;;;;;;;;;;4859342;29;20443;-84
2022/04/26 05:11:10;;;;;;;2.80;0.70;;;;;;;;;;4859127;29;20487;-84
2022/04/26 05:13:37;;;;;;;3.17;1.23;;;;;;;;;;4862664;29;20982;-84
2022/04/26 05:16:05;;;;;;;4.57;1.10;;;;;;;;;;4863097;29;20514;-84
2022/04/26 05:18:33;;;;;;;4.80;1.27;;;;;;;;;;4863199;29;20451;-84
2022/04/26 05:21:00;;;;;;;5.53;1.23;;;;;;;;;;4863059;29;20539;-84
2022/04/26 05:26:13;;;;;;;9.37;1.57;;;;;;;;;;4863026;29;20443;-84
2022/04/26 05:28:40;;;;;;;6.03;1.10;;;;;;;;;;4847079;29;20451;-83
2022/04/26 05:31:08;;;;;;;1.93;1.00;;;;;;;;;;4862408;29;20494;-84
2022/04/26 05:33:35;;;;;;;2.23;1.33;;;;;;;;;;4862285;29;20533;-84
2022/04/26 05:36:03;;;;;;;4.47;1.40;;;;;;;;;;4863536;29;20479;-84
2022/04/26 05:38:30;;;;;;;4.77;1.37;;;;;;;;;;4862720;29;20431;-84
2022/04/26 05:40:58;;;;;;;5.30;1.40;;;;;;;;;;4846871;29;20523;-84
2022/04/26 05:43:25;;;;;;;4.90;1.40;;;;;;;;;;4862341;29;20493;-84
2022/04/26 05:45:52;;;;;;;2.87;1.50;;;;;;;;;;4862554;29;20458;-84
2022/04/26 05:48:19;;;;;;;6.50;1.60;;;;;;;;;;4862394;29;21016;-84
2022/04/26 05:50:47;;;;;;;4.30;1.83;;;;;;;;;;4846872;29;20479;-84
2022/04/26 05:53:14;;;;;;;11.80;2.50;;;;;;;;;;4862291;29;20447;-84
2022/04/26 05:55:41;;;;;;;4.80;1.50;;;;;;;;;;4863286;29;20528;-84
2022/04/26 05:58:11;;;;;;;8.87;1.50;;;;;;;;;;4862092;29;20443;-84
2022/04/26 06:00:38;;;;;;;4.20;1.67;;;;;;;;;;4861802;29;20504;-84
2022/04/26 06:03:07;;;;;;;3.77;1.67;;;;;;;;;;4831349;29;20923;-84
2022/04/26 06:05:35;;;;;;;3.30;1.40;;;;;;;;;;4862509;29;20428;-84
2022/04/26 06:08:02;;;;;;;4.63;1.63;;;;;;;;;;4862010;29;20447;-84
2022/04/26 06:10:30;;;;;;;3.77;1.47;;;;;;;;;;4847043;29;20431;-84
2022/04/26 06:12:57;;;;;;;3.27;1.30;;;;;;;;;;4846454;29;20944;-84
2022/04/26 06:15:25;;;;;;;5.03;1.60;;;;;;;;;;4846611;29;20946;-84
2022/04/26 06:17:52;;;;;;;5.13;1.60;;;;;;;;;;4846545;29;20452;-84
2022/04/26 06:20:23;;;;;;;5.30;2.10;;;;;;;;;;4863129;29;20439;-84
2022/04/26 06:22:50;;;;;;;6.07;2.00;;;;;;;;;;4861600;29;20514;-84
2022/04/26 06:25:18;;;;;;;8.13;1.90;;;;;;;;;;4860841;29;20448;-84
2022/04/26 06:27:47;;;;;;;8.13;1.90;;;;;;;;;;4861596;29;20483;-84
2022/04/26 06:30:17;;;;;;;4.13;1.30;;;;;;;;;;4861532;29;20943;-84
2022/04/26 06:32:44;;;;;;;5.87;1.47;;;;;;;;;;4861755;29;20434;-84
2022/04/26 06:35:12;;;;;;;10.53;1.90;;;;;;;;;;4861620;29;20447;-84
2022/04/26 06:37:39;;;;;;;6.90;1.73;;;;;;;;;;4861845;29;20476;-84
2022/04/26 06:40:07;;;;;;;4.20;1.40;;;;;;;;;;4861469;29;20947;-84
2022/04/26 06:42:34;;;;;;;5.57;2.10;;;;;;;;;;4846142;29;20483;-84
2022/04/26 06:45:01;;;;;;;7.07;2.07;;;;;;;;;;4861289;29;20496;-84
2022/04/26 06:47:29;;;;;;;6.47;1.77;;;;;;;;;;4860996;29;20452;-84
2022/04/26 06:49:57;;;;;;;8.37;2.10;;;;;;;;;;4861983;29;20511;-85
2022/04/26 06:52:24;;;;;;;8.90;2.23;;;;;;;;;;4845859;29;20466;-85
2022/04/26 06:54:52;;;;;;;5.37;2.27;;;;;;;;;;4860774;29;20974;-86
2022/04/26 06:57:19;;;;;;;4.10;2.30;;;;;;;;;;4846099;29;20542;-84
2022/04/26 06:59:46;;;;;;;6.30;2.00;;;;;;;;;;4845929;29;20819;-85
2022/04/26 07:02:14;;;;;;;10.20;2.30;;;;;;;;;;4845571;29;20447;-85
2022/04/26 07:04:41;;;;;;;5.50;1.90;;;;;;;;;;4830875;29;20524;-85
2022/04/26 07:07:10;;;;;;;7.10;2.10;;;;;;;;;;4830594;29;20507;-85
2022/04/26 07:09:38;;;;;;;9.43;2.20;;;;;;;;;;4861871;29;20947;-85
2022/04/26 07:12:07;;;;;;;5.83;3.23;;;;;;;;;;4845594;29;20443;-85
2022/04/26 07:14:36;;;;;;;5.00;2.80;;;;;;;;;;4845900;29;20436;-85
2022/04/26 07:17:04;;;;;;;9.20;2.90;;;;;;;;;;4831191;29;20435;-85
2022/04/26 07:19:34;;;;;;;7.03;3.07;;;;;;;;;;4830538;29;20486;-84
2022/04/26 07:22:21;;;;;;;4.50;2.10;;;;;;;;;;4848238;29;20947;-85
2022/04/26 07:24:48;;;;;;;5.43;2.03;;;;;;;;;;4829800;29;21058;-84
2022/04/26 07:27:16;;;;;;;9.40;2.27;;;;;;;;;;4830458;29;20432;-85
2022/04/26 07:29:47;;;;;;;12.33;2.43;;;;;;;;;;4845592;29;20456;-85
2022/04/26 07:32:16;;;;;;;5.20;2.13;;;;;;;;;;4830539;29;20448;-85
2022/04/26 07:34:45;;;;;;;5.27;1.97;;;;;;;;;;4830182;29;20443;-85
2022/04/26 07:37:12;;;;;;;7.63;3.80;;;;;;;;;;4845516;29;20451;-84
2022/04/26 07:39:41;;;;;;;5.27;2.20;;;;;;;;;;4845565;29;20464;-84
2022/04/26 07:42:09;;;;;;;10.80;2.80;;;;;;;;;;4861382;29;20447;-85
2022/04/26 07:44:39;;;;;;;21.53;2.13;;;;;;;;;;4844711;29;20535;-85
2022/04/26 07:47:06;;;;;;;9.80;2.17;;;;;;;;;;4830109;29;20459;-85
2022/04/26 07:49:34;;;;;;;4.63;2.00;;;;;;;;;;4861113;29;20922;-85
2022/04/26 07:52:02;;;;;;;6.97;2.50;;;;;;;;;;4844920;29;20448;-85
2022/04/26 07:54:30;;;;;;;5.87;2.10;;;;;;;;;;4844600;29;20447;-85
2022/04/26 07:56:57;;;;;;;11.67;2.67;;;;;;;;;;4861133;29;20831;-85
2022/04/26 07:59:28;;;;;;;4.80;2.00;;;;;;;;;;4859747;29;20504;-85
2022/04/26 08:01:57;;;;;;;5.73;1.80;;;;;;;;;;4829873;29;20528;-84
2022/04/26 08:04:25;;;;;;;10.93;2.70;;;;;;;;;;4859984;29;20498;-85
2022/04/26 08:06:54;;;;;;;6.13;2.20;;;;;;;;;;4845000;29;20803;-84
2022/04/26 08:09:22;;;;;;;5.33;2.07;;;;;;;;;;4861006;29;20508;-85
2022/04/26 08:11:49;;;;;;;5.57;2.10;;;;;;;;;;4859939;29;20447;-85
2022/04/26 08:14:17;;;;;;;8.87;3.33;;;;;;;;;;4860337;29;20518;-85
2022/04/26 08:16:44;;;;;;;15.70;4.53;;;;;;;;;;4844512;29;20988;-85
2022/04/26 08:19:11;;;;;;;8.23;4.40;;;;;;;;;;4844419;29;20451;-85
2022/04/26 08:21:39;;;;;;;8.63;4.50;;;;;;;;;;4859807;29;20443;-85
2022/04/26 08:29:38;;;;;;;14.20;5.50;;;;;;;;;;4860038;29;20946;-85
2022/04/26 08:32:06;;;;;;;16.93;6.40;;;;;;;;;;4859987;29;20895;-85
2022/04/26 08:34:33;;;;;;;12.20;5.20;;;;;;;;;;4860381;29;20443;-85
2022/04/26 08:37:00;;;;;;;11.37;5.30;;;;;;;;;;4859061;29;20454;-85
2022/04/26 08:39:28;;;;;;;9.20;4.67;;;;;;;;;;4859557;29;20448;-85
2022/04/26 08:41:59;;;;;;;8.87;4.77;;;;;;;;;;4859772;29;20880;-85
2022/04/26 08:44:27;;;;;;;9.10;5.20;;;;;;;;;;4859669;29;21014;-85
2022/04/26 08:52:26;;;;;;;12.20;5.80;;;;;;;;;;4863671;29;20541;-85
2022/04/26 08:54:54;;;;;;;10.73;5.20;;;;;;;;;;4863232;29;20458;-85
2022/04/26 08:57:22;;;;;;;24.90;11.43;;;;;;;;;;4863162;29;20492;-84
2022/04/26 08:59:50;;;;;;;28.37;15.70;;;;;;;;;;4832644;29;20482;-84
2022/04/26 09:02:18;;;;;;;32.17;17.63;;;;;;;;;;4832717;29;20432;-84
2022/04/26 09:04:46;;;;;;;23.17;12.80;;;;;;;;;;4848086;29;20487;-85
2022/04/26 09:07:27;;;;;;;11.40;6.27;;;;;;;;;;4832632;29;20431;-85
2022/04/26 09:10:11;;;;;;;10.57;4.40;;;;;;;;;;4862700;29;20885;-84
2022/04/26 09:12:57;;;;;;;8.23;3.17;;;;;;;;;;4863144;29;20460;-85
2022/04/26 09:15:24;;;;;;;10.33;2.53;;;;;;;;;;4862791;29;20942;-85
2022/04/26 09:17:52;;;;;;;12.27;2.80;;;;;;;;;;4862954;29;20458;-84
2022/04/26 09:20:46;;;;;;;8.93;2.70;;;;;;;;;;4862637;29;20474;-85
2022/04/26 09:23:15;;;;;;;7.00;2.83;;;;;;;;;;4861230;29;20508;-84
2022/04/26 09:25:42;;;;;;;10.37;2.53;;;;;;;;;;4862923;29;20531;-84
2022/04/26 09:28:18;;;;;;;6.87;2.07;;;;;;;;;;4847198;29;20451;-84
2022/04/26 09:30:45;;;;;;;10.17;2.03;;;;;;;;;;4862835;29;20461;-84
2022/04/26 09:33:21;;;;;;;6.77;1.87;;;;;;;;;;4862888;29;20427;-84
2022/04/26 09:35:49;;;;;;;6.47;1.40;;;;;;;;;;4863618;29;20469;-84
2022/04/26 09:38:25;;;;;;;5.10;1.43;;;;;;;;;;4862550;29;20487;-84
2022/04/26 09:40:53;;;;;;;5.83;1.87;;;;;;;;;;4862236;29;20439;-85
2022/04/26 09:43:20;;;;;;;8.73;1.13;;;;;;;;;;4862266;29;20454;-84
2022/04/26 09:45:56;;;;;;;5.10;0.97;;;;;;;;;;4863160;29;20443;-84
2022/04/26 09:48:28;;;;;;;4.63;1.43;;;;;;;;;;4862477;29;20434;-84
2022/04/26 09:50:57;;;;;;;10.93;1.60;;;;;;;;;;4862360;29;20450;-84
2022/04/26 09:53:25;;;;;;;11.60;3.40;;;;;;;;;;4862454;29;20435;-84
2022/04/26 09:55:56;;;;;;;11.07;3.60;;;;;;;;;;4862038;29;20816;-85
2022/04/26 09:58:24;;;;;;;8.73;3.63;;;;;;;;;;4861189;29;20486;-85
2022/04/26 10:00:51;;;;;;;15.60;4.23;;;;;;;;;;4862034;29;20503;-84
2022/04/26 10:03:20;;;;;;;6.53;1.90;;;;;;;;;;4861563;29;20816;-84
2022/04/26 10:05:53;;;;;;;5.77;1.80;;;;;;;;;;4846766;29;20443;-84
2022/04/26 10:08:21;;;;;;;6.17;1.50;;;;;;;;;;4862002;29;20447;-84
2022/04/26 10:10:48;;;;;;;5.67;2.40;;;;;;;;;;4861679;29;20487;-84
2022/04/26 10:13:31;;;;;;;6.03;1.70;;;;;;;;;;4862074;29;20856;-84
2022/04/26 10:16:02;;;;;;;7.37;1.50;;;;;;;;;;4862024;29;20444;-84
2022/04/26 10:18:45;;;;;;;5.43;1.03;;;;;;;;;;4862990;29;20467;-84
2022/04/26 10:21:13;;;;;;;4.57;0.87;;;;;;;;;;4862085;29;20459;-84
2022/04/26 10:23:54;;;;;;;4.87;1.40;;;;;;;;;;4861769;29;20507;-84
2022/04/26 10:26:22;;;;;;;4.90;1.60;;;;;;;;;;4861637;29;20447;-84
2022/04/26 10:28:50;;;;;;;3.87;1.37;;;;;;;;;;4861592;29;20447;-84
2022/04/26 10:31:19;;;;;;;7.23;1.60;;;;;;;;;;4861437;29;20807;-84
2022/04/26 10:33:46;;;;;;;9.90;1.10;;;;;;;;;;4861597;29;20444;-84
2022/04/26 10:36:35;;;;;;;7.63;1.17;;;;;;;;;;4846310;29;20937;-84
2022/04/26 10:39:05;;;;;;;5.33;1.40;;;;;;;;;;4861175;29;20451;-84
2022/04/26 10:41:34;;;;;;;6.20;0.90;;;;;;;;;;4862829;29;20492;-84
2022/04/26 10:44:13;;;;;;;4.70;1.20;;;;;;;;;;4860929;29;20483;-84
2022/04/26 10:46:41;;;;;;;4.00;0.90;;;;;;;;;;4861206;29;20507;-84
2022/04/26 10:49:44;;;;;;;6.60;1.13;;;;;;;;;;4861593;29;20452;-84
2022/04/26 10:52:16;;;;;;;5.93;0.97;;;;;;;;;;4855118;29;20447;-85
2022/04/26 10:57:15;;;;;;;6.57;0.90;;;;;;;;;;4862163;29;20472;-84
2022/04/26 10:59:46;;;;;;;2.83;0.90;;;;;;;;;;4860962;29;20468;-84
2022/04/26 11:02:14;;;;;;;5.77;0.90;;;;;;;;;;4861078;29;20451;-85
2022/04/26 11:04:42;;;;;;;6.07;1.03;;;;;;;;;;4860990;29;20540;-85
2022/04/26 11:07:13;;;;;;;7.67;1.63;;;;;;;;;;4861012;29;20451;-84
2022/04/26 11:09:49;;;;;;;34.40;16.87;;;;;;;;;;4861821;29;20458;-84
2022/04/26 11:12:20;;;;;;;41.27;23.63;;;;;;;;;;4845897;29;20451;-84
2022/04/26 11:14:48;;;;;;;24.17;11.90;;;;;;;;;;4845790;29;20874;-84
2022/04/26 11:17:19;;;;;;;5.07;2.63;;;;;;;;;;4845809;29;20438;-85
2022/04/26 11:19:47;;;;;;;7.07;3.77;;;;;;;;;;4860618;29;20443;-84
2022/04/26 11:22:15;;;;;;;13.17;7.27;;;;;;;;;;4860617;29;20790;-84
2022/04/26 11:28:10;;;;;;;4.43;1.10;;;;;;;;;;4860659;29;20443;-84
2022/04/26 11:30:44;;;;;;;7.87;1.30;;;;;;;;;;4861360;29;20448;-84
2022/04/26 11:33:12;;;;;;;15.20;7.70;;;;;;;;;;4860563;29;20443;-84
2022/04/26 11:35:40;;;;;;;20.40;9.73;;;;;;;;;;4860084;29;20497;-84
2022/04/26 11:38:12;;;;;;;19.20;9.37;;;;;;;;;;4844920;29;20451;-85
2022/04/26 11:40:41;;;;;;;19.87;11.20;;;;;;;;;;4860264;29;20943;-84
2022/04/26 11:43:14;;;;;;;23.40;10.37;;;;;;;;;;4861374;29;20451;-84
2022/04/26 11:45:43;;;;;;;27.60;15.33;;;;;;;;;;4860160;29;20539;-84
2022/04/26 11:48:12;;;;;;;10.23;3.63;;;;;;;;;;4845362;29;20431;-84
2022/04/26 11:50:40;;;;;;;13.00;3.27;;;;;;;;;;4862904;29;20453;-85
2022/04/26 11:53:08;;;;;;;42.83;20.43;;;;;;;;;;4848078;29;20816;-86
2022/04/26 11:55:39;;;;;;;21.40;11.13;;;;;;;;;;4863325;29;20474;-85
2022/04/26 11:58:17;;;;;;;7.97;3.30;;;;;;;;;;4863045;29;21025;-84
2022/04/26 12:01:10;;;;;;;9.97;3.73;;;;;;;;;;4879313;29;20450;-84
2022/04/26 12:03:49;;;;;;;7.10;2.53;;;;;;;;;;4852945;29;20813;-84
2022/04/26 12:06:20;;;;;;;9.43;3.13;;;;;;;;;;4871527;29;20469;-83
2022/04/26 12:08:48;;;;;;;13.80;6.10;;;;;;;;;;4861146;29;20947;-84
2022/04/26 12:11:15;;;;;;;16.43;7.43;;;;;;;;;;4861688;29;20466;-84
2022/04/26 12:13:43;;;;;;;6.27;2.50;;;;;;;;;;4862587;29;20516;-84
2022/04/26 12:16:14;;;;;;;19.47;11.50;;;;;;;;;;4862675;29;20461;-84
2022/04/26 12:18:52;;;;;;;18.37;9.57;;;;;;;;;;4846910;29;20442;-86
2022/04/26 12:21:19;;;;;;;19.80;9.87;;;;;;;;;;4862097;29;20537;-86
2022/04/26 12:23:47;;;;;;;8.93;3.60;;;;;;;;;;4862950;29;20451;-85
2022/04/26 12:26:14;;;;;;;5.23;1.47;;;;;;;;;;4863386;29;20823;-85
2022/04/26 12:28:45;;;;;;;6.60;1.80;;;;;;;;;;4847622;29;20450;-85
2022/04/26 12:31:19;;;;;;;4.63;1.27;;;;;;;;;;4863415;29;20997;-85
2022/04/26 12:33:50;;;;;;;5.60;1.10;;;;;;;;;;4847453;29;20454;-85
2022/04/26 12:36:17;;;;;;;4.93;1.17;;;;;;;;;;4847736;29;20883;-85
2022/04/26 12:38:45;;;;;;;3.10;1.10;;;;;;;;;;4863277;29;20431;-85
2022/04/26 12:41:13;;;;;;;6.73;1.50;;;;;;;;;;4847893;29;20438;-85
2022/04/26 12:43:40;;;;;;;8.50;1.90;;;;;;;;;;4879325;29;20446;-85
2022/04/26 12:46:07;;;;;;;13.17;2.20;;;;;;;;;;4848009;29;20493;-85
2022/04/26 12:51:21;;;;;;;4.03;1.67;;;;;;;;;;4865610;29;20447;-85
2022/04/26 12:54:08;;;;;;;10.83;1.80;;;;;;;;;;4849301;29;20467;-85
2022/04/26 12:56:35;;;;;;;7.90;1.90;;;;;;;;;;4862433;29;20481;-85
2022/04/26 12:59:03;;;;;;;7.60;2.00;;;;;;;;;;4863058;29;20446;-86
2022/04/26 13:01:31;;;;;;;7.00;2.60;;;;;;;;;;4862893;29;20474;-85
2022/04/26 13:03:58;;;;;;;12.37;4.30;;;;;;;;;;4847602;29;20487;-85
2022/04/26 13:06:26;;;;;;;6.90;2.50;;;;;;;;;;4847657;29;20457;-85
2022/04/26 13:09:13;;;;;;;10.00;3.13;;;;;;;;;;4852628;29;20481;-85
2022/04/26 13:11:43;;;;;;;6.87;3.40;;;;;;;;;;4862861;29;20450;-85
2022/04/26 13:14:11;;;;;;;5.00;1.80;;;;;;;;;;4863051;29;20427;-86
2022/04/26 13:16:58;;;;;;;8.13;4.20;;;;;;;;;;4852545;29;20446;-86
2022/04/26 13:19:26;;;;;;;3.77;1.87;;;;;;;;;;4862599;29;20484;-85
2022/04/26 13:21:53;;;;;;;5.63;1.63;;;;;;;;;;4879009;29;20439;-86
2022/04/26 13:24:28;;;;;;;7.90;1.90;;;;;;;;;;4847286;29;20489;-85
2022/04/26 13:26:56;;;;;;;6.50;2.00;;;;;;;;;;4863767;29;20442;-85
2022/04/26 13:29:23;;;;;;;9.53;1.57;;;;;;;;;;4847211;29;20442;-85
2022/04/26 13:31:51;;;;;;;4.10;1.20;;;;;;;;;;4847616;29;20427;-85
2022/04/26 13:34:18;;;;;;;3.87;1.40;;;;;;;;;;4849574;29;20479;-86
2022/04/26 13:37:07;;;;;;;9.30;1.90;;;;;;;;;;4868549;29;21002;-85
2022/04/26 13:39:35;;;;;;;4.03;1.90;;;;;;;;;;4851393;29;20446;-86
2022/04/26 13:42:03;;;;;;;26.10;11.33;;;;;;;;;;4850675;29;20442;-85
2022/04/26 13:44:30;;;;;;;20.97;13.07;;;;;;;;;;4850525;29;20482;-85
2022/04/26 13:46:58;;;;;;;10.60;4.73;;;;;;;;;;4865805;29;20825;-85
2022/04/26 13:49:26;;;;;;;9.70;3.27;;;;;;;;;;4881996;29;20451;-85
2022/04/26 13:51:53;;;;;;;13.23;3.03;;;;;;;;;;4882564;29;20439;-85
2022/04/26 13:54:21;;;;;;;34.20;13.77;;;;;;;;;;4849925;29;20796;-85
2022/04/26 13:56:49;;;;;;;15.17;5.97;;;;;;;;;;4865620;29;20459;-85
2022/04/26 13:59:17;;;;;;;28.90;14.27;;;;;;;;;;4850309;29;20427;-85
2022/04/26 14:01:45;;;;;;;33.67;20.60;;;;;;;;;;4850323;29;20423;-85
2022/04/26 14:04:12;;;;;;;10.87;6.47;;;;;;;;;;4849777;29;20454;-86
2022/04/26 14:06:40;;;;;;;7.33;2.40;;;;;;;;;;4849825;29;20527;-84
2022/04/26 14:09:07;;;;;;;3.50;1.10;;;;;;;;;;4865401;29;20442;-85
2022/04/26 14:11:35;;;;;;;5.90;1.37;;;;;;;;;;4849540;29;20503;-85
2022/04/26 14:22:32;;;;;;;3.87;0.90;;;;;;;;;;4867633;29;20487;-84
2022/04/26 14:25:00;;;;;;;5.57;1.60;;;;;;;;;;4864892;29;20565;-84
2022/04/26 14:27:28;;;;;;;2.03;0.57;;;;;;;;;;4881342;29;20933;-84
2022/04/26 14:29:56;;;;;;;8.03;2.60;;;;;;;;;;4864708;29;20845;-85
2022/04/26 14:32:24;;;;;;;8.07;5.23;;;;;;;;;;4865065;29;21013;-85
2022/04/26 14:34:51;;;;;;;8.30;3.33;;;;;;;;;;4864764;29;20446;-85
2022/04/26 14:37:19;;;;;;;4.37;2.80;;;;;;;;;;4864785;29;20442;-85
2022/04/26 14:39:47;;;;;;;3.10;1.80;;;;;;;;;;4864857;29;20477;-85
2022/04/26 14:42:14;;;;;;;3.97;1.10;;;;;;;;;;4864877;29;20491;-85
2022/04/26 14:44:42;;;;;;;7.60;1.33;;;;;;;;;;4864014;29;20559;-85
2022/04/26 14:47:11;;;;;;;3.00;0.90;;;;;;;;;;4849575;29;20447;-85
2022/04/26 14:49:38;;;;;;;3.60;0.90;;;;;;;;;;4864832;29;20450;-85
2022/04/26 14:52:09;;;;;;;6.50;1.03;;;;;;;;;;4864799;29;20442;-85
2022/04/26 14:54:55;;;;;;;2.67;1.20;;;;;;;;;;4880792;29;20805;-85
2022/04/26 14:57:23;;;;;;;3.97;1.03;;;;;;;;;;4880994;29;20442;-85
2022/04/26 14:59:51;;;;;;;3.47;0.77;;;;;;;;;;4864342;29;20447;-85
2022/04/26 15:02:19;;;;;;;2.80;1.10;;;;;;;;;;4864580;29;20462;-85
2022/04/26 15:04:47;;;;;;;5.73;0.97;;;;;;;;;;4864398;29;20512;-85
2022/04/26 15:07:17;;;;;;;3.73;0.83;;;;;;;;;;4864301;29;20869;-85
2022/04/26 15:09:45;;;;;;;1.80;0.57;;;;;;;;;;4864351;29;20465;-84
2022/04/26 15:17:49;;;;;;;2.27;0.53;;;;;;;;;;4866707;29;20446;-85
2022/04/26 15:20:18;;;;;;;1.93;0.73;;;;;;;;;;4849584;29;20786;-85
2022/04/26 15:22:46;;;;;;;3.73;0.90;;;;;;;;;;4864334;29;20545;-85
2022/04/26 15:25:14;;;;;;;2.53;0.70;;;;;;;;;;4864009;29;20486;-84
2022/04/26 15:27:41;;;;;;;2.43;0.77;;;;;;;;;;4863973;29;20608;-85
2022/04/26 15:30:09;;;;;;;6.67;1.20;;;;;;;;;;4880420;29;20451;-85
2022/04/26 15:32:37;;;;;;;2.13;1.00;;;;;;;;;;4863832;29;20829;-84
2022/04/26 15:35:05;;;;;;;2.50;0.53;;;;;;;;;;4863894;29;20443;-85
2022/04/26 15:37:33;;;;;;;3.77;0.80;;;;;;;;;;4863981;29;20538;-85
2022/04/26 15:40:01;;;;;;;6.27;0.80;;;;;;;;;;4863635;29;20453;-85
2022/04/26 15:42:30;;;;;;;1.47;0.63;;;;;;;;;;4863671;29;20964;-84
2022/04/26 15:44:59;;;;;;;5.40;1.10;;;;;;;;;;4863626;29;20482;-85
2022/04/26 15:47:26;;;;;;;3.30;0.80;;;;;;;;;;4863408;29;20446;-85
2022/04/26 15:49:54;;;;;;;2.00;0.80;;;;;;;;;;4848405;29;20446;-84
2022/04/26 15:52:22;;;;;;;1.63;0.50;;;;;;;;;;4863519;29;20478;-85
2022/04/26 15:54:49;;;;;;;3.93;0.60;;;;;;;;;;4863676;29;20451;-84
2022/04/26 15:57:16;;;;;;;1.83;0.63;;;;;;;;;;4879020;29;20549;-84
2022/04/26 15:59:45;;;;;;;2.40;0.87;;;;;;;;;;4863344;29;20447;-85
2022/04/26 16:02:13;;;;;;;1.40;0.60;;;;;;;;;;4863344;29;20442;-85
2022/04/26 16:04:40;;;;;;;2.03;0.67;;;;;;;;;;4863476;29;20871;-84
2022/04/26 16:07:08;;;;;;;3.50;0.80;;;;;;;;;;4863301;29;21018;-85
2022/04/26 16:20:42;;;;;;;2.27;0.43;;;;;;;;;;4865645;29;20533;-85
2022/04/26 16:23:10;;;;;;;4.07;0.80;;;;;;;;;;4863445;29;20427;-84
2022/04/26 16:25:38;;;;;;;1.47;0.50;;;;;;;;;;4879923;29;20558;-84
2022/04/26 16:28:05;;;;;;;4.47;1.17;;;;;;;;;;4863360;29;20964;-85
2022/04/26 16:30:33;;;;;;;3.33;0.63;;;;;;;;;;4879487;29;20453;-84
2022/04/26 16:33:04;;;;;;;7.57;0.87;;;;;;;;;;4862789;29;20470;-85
2022/04/26 16:35:32;;;;;;;3.00;0.50;;;;;;;;;;4863288;29;20442;-84
2022/04/26 16:37:59;;;;;;;2.50;0.60;;;;;;;;;;4863265;29;20453;-84
2022/04/26 16:40:28;;;;;;;4.97;0.80;;;;;;;;;;4863199;29;20446;-85
2022/04/26 16:42:56;;;;;;;3.00;0.80;;;;;;;;;;4848062;29;20946;-85
2022/04/26 16:45:24;;;;;;;4.83;0.77;;;;;;;;;;4863030;29;20902;-84
2022/04/26 16:47:53;;;;;;;4.63;0.70;;;;;;;;;;4879191;29;20557;-84
2022/04/26 16:50:20;;;;;;;2.90;0.90;;;;;;;;;;4862881;29;20454;-84
2022/04/26 16:52:49;;;;;;;2.07;0.53;;;;;;;;;;4862809;29;20488;-84
2022/04/26 16:55:17;;;;;;;3.10;0.97;;;;;;;;;;4862927;29;20526;-84
2022/04/26 16:57:45;;;;;;;2.70;0.90;;;;;;;;;;4863029;29;20961;-84
2022/04/26 17:00:14;;;;;;;7.47;1.30;;;;;;;;;;4862916;29;20478;-84
2022/04/26 17:02:42;;;;;;;3.20;1.00;;;;;;;;;;4863306;29;20450;-84
2022/04/26 17:05:11;;;;;;;3.00;0.83;;;;;;;;;;4862730;29;20431;-84
2022/04/26 17:07:45;;;;;;;3.77;0.70;;;;;;;;;;4863850;29;20445;-84
2022/04/26 17:10:13;;;;;;;3.87;0.90;;;;;;;;;;4882644;29;20465;-84
2022/04/26 17:12:40;;;;;;;3.13;0.70;;;;;;;;;;4882707;29;20491;-84
2022/04/26 17:15:09;;;;;;;4.03;0.77;;;;;;;;;;4866340;29;20473;-84
2022/04/26 17:17:38;;;;;;;3.40;0.80;;;;;;;;;;4866359;29;20446;-84
2022/04/26 17:20:06;;;;;;;1.60;0.73;;;;;;;;;;4866083;29;20445;-85
2022/04/26 17:22:34;;;;;;;4.13;0.70;;;;;;;;;;4882032;29;20447;-85
2022/04/26 17:25:14;;;;;;;5.37;0.80;;;;;;;;;;4866321;29;20786;-84
2022/04/26 17:28:07;;;;;;;6.23;1.47;;;;;;;;;;4870500;29;20495;-84
2022/04/26 17:30:36;;;;;;;4.13;2.03;;;;;;;;;;4866254;29;20434;-84
2022/04/26 17:33:04;;;;;;;3.13;0.77;;;;;;;;;;4865772;29;20958;-84
2022/04/26 17:35:32;;;;;;;4.77;0.97;;;;;;;;;;4882446;29;20446;-84
2022/04/26 17:37:59;;;;;;;2.97;1.03;;;;;;;;;;4850597;29;20489;-84
2022/04/26 17:40:27;;;;;;;5.17;0.77;;;;;;;;;;4865799;29;20431;-84
2022/04/26 17:42:55;;;;;;;3.10;0.80;;;;;;;;;;4882186;29;20474;-84
2022/04/26 17:45:22;;;;;;;8.63;1.10;;;;;;;;;;4865622;29;20533;-84
2022/04/26 17:47:49;;;;;;;2.70;0.73;;;;;;;;;;4865386;29;20479;-84
2022/04/26 17:50:22;;;;;;;5.73;0.80;;;;;;;;;;4866221;29;20447;-84
2022/04/26 17:58:22;;;;;;;4.13;1.23;;;;;;;;;;4868305;29;20480;-84
2022/04/26 18:00:50;;;;;;;3.73;1.03;;;;;;;;;;4882228;29;20478;-84
2022/04/26 18:03:19;;;;;;;6.10;1.60;;;;;;;;;;4865509;29;20453;-85
2022/04/26 18:05:46;;;;;;;5.87;1.20;;;;;;;;;;4865569;29;20486;-84
2022/04/26 18:08:13;;;;;;;3.43;0.80;;;;;;;;;;4865081;29;20972;-84
2022/04/26 18:10:41;;;;;;;6.43;1.00;;;;;;;;;;4865096;29;20426;-84
2022/04/26 18:13:09;;;;;;;4.00;1.20;;;;;;;;;;4849754;29;20447;-84
2022/04/26 18:15:38;;;;;;;5.20;0.97;;;;;;;;;;4850077;29;20443;-84
2022/04/26 18:18:05;;;;;;;5.57;1.23;;;;;;;;;;4881305;29;20545;-84
2022/04/26 18:20:33;;;;;;;5.30;0.80;;;;;;;;;;4864349;29;20442;-84
2022/04/26 18:23:00;;;;;;;7.27;1.97;;;;;;;;;;4865142;29;20495;-84
2022/04/26 18:28:15;;;;;;;5.60;1.33;;;;;;;;;;4867383;29;20442;-84
2022/04/26 18:30:43;;;;;;;5.67;1.20;;;;;;;;;;4865255;29;20504;-84
2022/04/26 18:33:10;;;;;;;2.90;0.50;;;;;;;;;;4849949;29;20459;-84
2022/04/26 18:35:38;;;;;;;3.17;0.83;;;;;;;;;;4881361;29;20431;-85
2022/04/26 18:38:06;;;;;;;5.80;1.40;;;;;;;;;;4864825;29;20442;-85
2022/04/26 18:40:33;;;;;;;5.07;1.17;;;;;;;;;;4864435;29;20457;-84
2022/04/26 18:43:00;;;;;;;5.37;1.00;;;;;;;;;;4864860;29;20446;-85
2022/04/26 18:45:28;;;;;;;9.00;1.23;;;;;;;;;;4849476;29;20446;-84
2022/04/26 18:47:56;;;;;;;10.70;1.70;;;;;;;;;;4864203;29;20458;-84
2022/04/26 18:50:24;;;;;;;9.17;2.10;;;;;;;;;;4864806;29;20431;-84
2022/04/26 18:52:52;;;;;;;8.20;1.80;;;;;;;;;;4880922;29;20443;-84
2022/04/26 18:55:19;;;;;;;4.83;1.63;;;;;;;;;;4864382;29;20467;-84
2022/04/26 18:57:46;;;;;;;6.53;1.47;;;;;;;;;;4880406;29;20474;-84
2022/04/26 19:00:17;;;;;;;4.87;0.93;;;;;;;;;;4864432;29;20519;-84
2022/04/26 19:02:44;;;;;;;7.43;1.10;;;;;;;;;;4880521;29;20446;-84
2022/04/26 19:05:12;;;;;;;6.33;1.20;;;;;;;;;;4880726;29;20434;-84
2022/04/26 19:07:40;;;;;;;3.33;0.80;;;;;;;;;;4848925;29;20506;-84
2022/04/26 19:12:53;;;;;;;4.80;1.27;;;;;;;;;;4867069;29;20514;-84
2022/04/26 19:15:21;;;;;;;3.97;1.20;;;;;;;;;;4863931;29;20510;-84
2022/04/26 19:17:49;;;;;;;6.13;1.13;;;;;;;;;;4864257;29;20490;-84
2022/04/26 19:20:16;;;;;;;4.20;1.03;;;;;;;;;;4863398;29;20493;-84
2022/04/26 19:22:44;;;;;;;5.53;1.20;;;;;;;;;;4864047;29;20446;-84
2022/04/26 19:25:11;;;;;;;5.03;0.97;;;;;;;;;;4880180;29;20526;-85
2022/04/26 19:27:38;;;;;;;4.63;1.20;;;;;;;;;;4863863;29;20902;-85